createdAt,value
2022-11-03T00:01:55.531Z,101661.91
2022-11-03T00:04:21.981Z,101672.69
2022-11-03T00:06:49.001Z,101667.66
2022-11-03T00:09:15.749Z,101658.91
2022-11-03T00:11:42.319Z,101661.66
2022-11-03T00:14:11.381Z,101658.91
2022-11-03T00:16:37.751Z,101657.31
2022-11-03T00:19:04.064Z,101655.16
2022-11-03T00:21:30.380Z,101647.38
2022-11-03T00:23:56.699Z,101653.56
2022-11-03T00:26:22.935Z,101652.06
2022-11-03T00:28:50.186Z,101652.78
2022-11-03T00:31:20.276Z,101650.03
2022-11-03T00:33:46.610Z,101645.66
2022-11-03T00:36:13.559Z,101631.16
2022-11-03T00:38:39.879Z,101628.41
2022-11-03T00:41:06.238Z,101624.00
2022-11-03T00:43:32.985Z,101633.91
2022-11-03T00:45:59.301Z,101625.28
2022-11-03T00:48:32.764Z,101621.00
2022-11-03T00:51:11.254Z,101614.63
2022-11-03T00:53:38.191Z,101621.00
2022-11-03T00:56:04.592Z,101615.13
2022-11-03T00:58:30.989Z,101617.28
2022-11-03T01:01:04.422Z,101615.66
2022-11-03T01:03:31.661Z,101611.50
2022-11-03T01:06:16.468Z,101604.28
2022-11-03T01:08:42.826Z,101615.03
2022-11-03T01:11:28.081Z,101612.16
2022-11-03T01:13:54.400Z,101615.03
2022-11-03T01:16:20.724Z,101623.03
2022-11-03T01:18:47.082Z,101612.16
2022-11-03T01:21:13.431Z,101613.53
2022-11-03T01:23:39.749Z,101619.19
2022-11-03T01:26:06.454Z,101616.41
2022-11-03T01:28:36.028Z,101619.19
2022-11-03T01:31:03.448Z,101617.81
2022-11-03T01:33:29.777Z,101621.31
2022-11-03T01:35:56.093Z,101604.91
2022-11-03T01:38:22.406Z,101609.16
2022-11-03T01:40:48.777Z,101604.66
2022-11-03T01:43:16.265Z,101599.75
2022-11-03T01:45:42.572Z,101597.66
2022-11-03T01:48:09.052Z,101592.75
2022-11-03T01:50:35.383Z,101594.78
2022-11-03T01:53:01.713Z,101590.38
2022-11-03T01:55:28.738Z,101591.66
2022-11-03T01:57:56.023Z,101581.50
2022-11-03T02:00:22.329Z,101572.03
2022-11-03T02:02:48.649Z,101573.66
2022-11-03T02:05:17.370Z,101570.00
2022-11-03T02:07:48.366Z,101578.63
2022-11-03T02:10:14.684Z,101581.44
2022-11-03T02:12:41.003Z,101579.91
2022-11-03T02:15:10.952Z,101575.66
2022-11-03T02:17:37.356Z,101576.41
2022-11-03T02:20:07.879Z,101573.00
2022-11-03T02:22:49.217Z,101580.16
2022-11-03T02:25:18.199Z,101577.28
2022-11-03T02:27:44.514Z,101581.63
2022-11-03T02:30:10.831Z,101578.75
2022-11-03T02:33:03.284Z,101574.38
2022-11-03T02:35:31.580Z,101571.50
2022-11-03T02:37:58.325Z,101571.41
2022-11-03T02:40:32.086Z,101564.25
2022-11-03T02:42:58.416Z,101567.78
2022-11-03T02:45:24.949Z,101564.16
2022-11-03T02:47:51.283Z,101555.53
2022-11-03T02:50:17.647Z,101551.38
2022-11-03T02:52:44.839Z,101558.41
2022-11-03T02:55:34.488Z,101554.00
2022-11-03T02:58:15.034Z,101539.72
2022-11-03T03:00:52.208Z,101533.84
2022-11-03T03:03:24.466Z,101542.50
2022-11-03T03:05:50.784Z,101538.88
2022-11-03T03:08:17.112Z,101536.63
2022-11-03T03:10:43.828Z,101544.63
2022-11-03T03:13:10.636Z,101533.84
2022-11-03T03:15:46.568Z,101536.75
2022-11-03T03:18:15.962Z,101526.72
2022-11-03T03:20:47.043Z,101532.25
2022-11-03T03:23:15.129Z,101524.88
2022-11-03T03:25:42.133Z,101533.63
2022-11-03T03:28:13.224Z,101530.00
2022-11-03T03:30:39.578Z,101527.25
2022-11-03T03:33:06.149Z,101524.38
2022-11-03T03:35:32.715Z,101525.09
2022-11-03T03:38:04.851Z,101520.09
2022-11-03T03:40:32.442Z,101511.56
2022-11-03T03:42:58.771Z,101509.53
2022-11-03T03:45:25.084Z,101516.19
2022-11-03T03:47:56.398Z,101514.06
2022-11-03T03:50:23.949Z,101504.75
2022-11-03T03:52:50.273Z,101502.66
2022-11-03T03:55:17.448Z,101509.88
2022-11-03T03:57:43.847Z,101508.53
2022-11-03T04:00:12.883Z,101496.25
2022-11-03T04:02:39.297Z,101509.25
2022-11-03T04:05:05.828Z,101505.72
2022-11-03T04:07:47.092Z,101513.63
2022-11-03T04:10:13.658Z,101511.50
2022-11-03T04:12:59.240Z,101505.00
2022-11-03T04:16:03.543Z,101501.47
2022-11-03T04:18:48.407Z,101498.72
2022-11-03T04:21:33.248Z,101500.19
2022-11-03T04:24:02.242Z,101495.94
2022-11-03T04:26:28.572Z,101503.19
2022-11-03T04:28:54.889Z,101495.94
2022-11-03T04:31:21.264Z,101495.19
2022-11-03T04:33:47.596Z,101488.06
2022-11-03T04:36:20.626Z,101477.16
2022-11-03T04:38:47.200Z,101484.53
2022-11-03T04:41:17.699Z,101478.66
2022-11-03T04:43:44.510Z,101467.25
2022-11-03T04:46:11.485Z,101471.00
2022-11-03T04:48:37.835Z,101470.34
2022-11-03T04:51:10.532Z,101469.59
2022-11-03T04:53:36.852Z,101463.22
2022-11-03T04:56:08.744Z,101467.56
2022-11-03T04:58:35.239Z,101458.81
2022-11-03T05:01:01.667Z,101461.63
2022-11-03T05:03:34.702Z,101464.56
2022-11-03T05:06:20.049Z,101453.84
2022-11-03T05:08:48.443Z,101454.56
2022-11-03T05:11:16.858Z,101441.66
2022-11-03T05:13:43.179Z,101443.06
2022-11-03T05:16:09.493Z,101430.78
2022-11-03T05:18:37.058Z,101423.00
2022-11-03T05:21:03.825Z,101431.66
2022-11-03T05:23:31.139Z,101424.47
2022-11-03T05:25:58.000Z,101414.38
2022-11-03T05:28:30.825Z,101419.47
2022-11-03T05:30:57.371Z,101405.72
2022-11-03T05:33:28.431Z,101402.97
2022-11-03T05:35:55.478Z,101413.06
2022-11-03T05:38:22.198Z,101410.19
2022-11-03T05:40:52.560Z,101404.44
2022-11-03T05:43:18.908Z,101413.81
2022-11-03T05:45:45.281Z,101412.44
2022-11-03T05:48:13.549Z,101404.53
2022-11-03T05:50:39.870Z,101419.69
2022-11-03T05:53:12.189Z,101423.31
2022-11-03T05:55:38.532Z,101421.94
2022-11-03T05:58:05.448Z,101418.94
2022-11-03T06:00:32.609Z,101421.81
2022-11-03T06:02:59.115Z,101424.69
2022-11-03T06:05:25.670Z,101423.22
2022-11-03T06:07:55.281Z,101423.97
2022-11-03T06:10:31.805Z,101418.19
2022-11-03T06:13:05.287Z,101421.94
2022-11-03T06:15:32.593Z,101423.41
2022-11-03T06:17:58.918Z,101426.19
2022-11-03T06:20:25.565Z,101425.78
2022-11-03T06:22:52.765Z,101427.13
2022-11-03T06:25:29.919Z,101419.78
2022-11-03T06:27:57.541Z,101427.06
2022-11-03T06:30:28.365Z,101424.56
2022-11-03T06:32:54.941Z,101418.03
2022-11-03T06:35:21.264Z,101423.56
2022-11-03T06:37:47.572Z,101416.78
2022-11-03T06:40:13.819Z,101418.50
2022-11-03T06:42:40.131Z,101412.91
2022-11-03T06:45:12.369Z,101411.63
2022-11-03T06:47:38.705Z,101405.41
2022-11-03T06:50:07.500Z,101408.28
2022-11-03T06:52:34.104Z,101405.59
2022-11-03T06:55:15.723Z,101406.53
2022-11-03T06:57:44.230Z,101407.91
2022-11-03T07:00:40.402Z,101400.47
2022-11-03T07:03:14.842Z,101399.06
2022-11-03T07:05:41.207Z,101404.94
2022-11-03T07:08:19.799Z,101397.78
2022-11-03T07:10:46.164Z,101398.41
2022-11-03T07:13:16.412Z,101401.19
2022-11-03T07:15:42.724Z,101401.19
2022-11-03T07:18:22.750Z,101396.00
2022-11-03T07:20:49.202Z,101393.22
2022-11-03T07:23:17.171Z,101402.13
2022-11-03T07:25:43.994Z,101396.19
2022-11-03T07:28:10.343Z,101397.78
2022-11-03T07:30:36.658Z,101389.66
2022-11-03T07:33:09.521Z,101392.84
2022-11-03T07:36:12.971Z,101398.22
2022-11-03T07:38:27.668Z,101394.59
2022-11-03T07:40:54.019Z,101398.06
2022-11-03T07:43:22.509Z,101390.22
2022-11-03T07:45:52.148Z,101393.38
2022-11-03T07:48:25.707Z,101381.72
2022-11-03T07:50:52.955Z,101368.50
2022-11-03T07:53:26.139Z,101364.41
2022-11-03T07:55:53.525Z,101369.56
2022-11-03T07:58:20.887Z,101354.56
2022-11-03T08:00:47.210Z,101355.97
2022-11-03T08:03:19.097Z,101352.69
2022-11-03T08:05:45.436Z,101354.31
2022-11-03T08:08:11.945Z,101353.13
2022-11-03T08:10:38.324Z,101342.00
2022-11-03T08:13:04.878Z,101339.41
2022-11-03T08:15:31.437Z,101340.16
2022-11-03T08:17:57.758Z,101334.41
2022-11-03T08:20:24.073Z,101333.66
2022-11-03T08:23:24.178Z,101325.75
2022-11-03T08:25:36.690Z,101324.38
2022-11-03T08:28:04.029Z,101327.16
2022-11-03T08:30:30.577Z,101319.88
2022-11-03T08:32:56.913Z,101319.16
2022-11-03T08:35:23.237Z,101311.91
2022-11-03T08:37:49.551Z,101314.13
2022-11-03T08:40:15.897Z,101305.47
2022-11-03T08:42:42.293Z,101300.47
2022-11-03T08:45:08.753Z,101302.59
2022-11-03T08:47:35.110Z,101295.38
2022-11-03T08:50:01.686Z,101289.59
2022-11-03T08:52:28.264Z,101285.97
2022-11-03T08:54:54.628Z,101285.31
2022-11-03T08:57:21.201Z,101281.69
2022-11-03T08:59:47.581Z,101295.38
2022-11-03T09:02:13.901Z,101277.34
2022-11-03T09:04:40.215Z,101275.72
2022-11-03T09:07:06.526Z,101273.19
2022-11-03T09:12:22.114Z,101259.31
2022-11-03T09:14:48.429Z,101257.94
2022-11-03T09:17:14.754Z,101247.34
2022-11-03T09:19:41.142Z,101242.69
2022-11-03T09:22:07.459Z,101244.63
2022-11-03T09:24:33.777Z,101238.22
2022-11-03T09:27:02.295Z,101238.09
2022-11-03T09:29:36.319Z,101235.44
2022-11-03T09:32:07.003Z,101235.06
2022-11-03T09:34:33.362Z,101229.00
2022-11-03T09:36:59.689Z,101230.47
2022-11-03T09:39:26.014Z,101237.00
2022-11-03T09:41:58.409Z,101227.69
2022-11-03T09:44:25.634Z,101224.31
2022-11-03T09:46:57.702Z,101220.81
2022-11-03T09:49:24.641Z,101217.91
2022-11-03T09:51:50.982Z,101210.91
2022-11-03T09:54:17.338Z,101204.13
2022-11-03T09:56:44.610Z,101194.72
2022-11-03T09:59:13.349Z,101198.03
2022-11-03T10:01:39.832Z,101195.41
2022-11-03T10:04:06.259Z,101181.78
2022-11-03T10:06:32.587Z,101183.38
2022-11-03T10:08:58.900Z,101187.72
2022-11-03T10:11:25.249Z,101178.88
2022-11-03T10:13:53.148Z,101176.88
2022-11-03T10:16:20.120Z,101162.22
2022-11-03T10:18:46.477Z,101167.97
2022-11-03T10:21:16.925Z,101160.84
2022-11-03T10:23:44.854Z,101152.94
2022-11-03T10:26:11.783Z,101157.94
2022-11-03T10:28:38.125Z,101152.09
2022-11-03T10:31:12.345Z,101147.91
2022-11-03T10:33:40.571Z,101149.31
2022-11-03T10:36:15.641Z,101133.41
2022-11-03T10:38:43.524Z,101124.84
2022-11-03T10:41:12.832Z,101127.63
2022-11-03T10:43:39.533Z,101123.47
2022-11-03T10:46:23.377Z,101132.13
2022-11-03T10:49:02.754Z,101123.69
2022-11-03T10:51:29.261Z,101112.44
2022-11-03T10:53:56.015Z,101112.81
2022-11-03T10:56:22.349Z,101103.97
2022-11-03T10:58:48.689Z,101104.47
2022-11-03T11:01:15.101Z,101097.94
2022-11-03T11:03:41.963Z,101098.59
2022-11-03T11:06:21.550Z,101093.69
2022-11-03T11:08:48.360Z,101090.88
2022-11-03T11:11:17.542Z,101078.75
2022-11-03T11:13:44.043Z,101078.75
2022-11-03T11:16:36.182Z,101075.78
2022-11-03T11:19:02.592Z,101074.22
2022-11-03T11:21:31.953Z,101065.50
2022-11-03T11:24:01.074Z,101064.22
2022-11-03T11:26:33.873Z,101062.31
2022-11-03T11:29:09.063Z,101050.88
2022-11-03T11:31:38.702Z,101043.94
2022-11-03T11:34:12.282Z,101052.00
2022-11-03T11:36:39.105Z,101047.75
2022-11-03T11:39:12.397Z,101045.50
2022-11-03T11:41:57.412Z,101033.22
2022-11-03T11:44:39.028Z,101036.31
2022-11-03T11:47:21.916Z,101041.06
2022-11-03T11:49:48.231Z,101023.59
2022-11-03T11:52:15.585Z,101025.91
2022-11-03T11:54:45.388Z,101012.25
2022-11-03T11:57:18.867Z,101014.66
2022-11-03T11:59:45.601Z,100999.13
2022-11-03T12:02:16.433Z,100998.13
2022-11-03T12:04:45.683Z,100997.13
2022-11-03T12:07:12.841Z,100996.22
2022-11-03T12:09:40.387Z,100992.56
2022-11-03T12:12:08.863Z,100979.38
2022-11-03T12:14:35.973Z,100982.34
2022-11-03T12:17:14.515Z,100987.38
2022-11-03T12:19:44.926Z,100979.00
2022-11-03T12:22:11.778Z,100980.31
2022-11-03T12:24:39.244Z,100976.13
2022-11-03T12:27:25.791Z,100968.78
2022-11-03T12:29:55.804Z,100972.50
2022-11-03T12:32:37.409Z,100966.28
2022-11-03T12:35:04.294Z,100964.91
2022-11-03T12:37:30.741Z,100958.78
2022-11-03T12:39:57.065Z,100963.34
2022-11-03T12:42:25.304Z,100958.25
2022-11-03T12:44:52.042Z,100949.03
2022-11-03T12:47:18.365Z,100950.22
2022-11-03T12:49:44.685Z,100952.63
2022-11-03T12:52:11.343Z,100949.97
2022-11-03T12:54:37.663Z,100944.44
2022-11-03T12:57:03.980Z,100933.13
2022-11-03T12:59:30.322Z,100923.13
2022-11-03T13:01:56.752Z,100918.91
2022-11-03T13:04:23.271Z,100911.13
2022-11-03T13:06:49.654Z,100908.22
2022-11-03T13:09:16.085Z,100913.25
2022-11-03T13:12:01.155Z,100903.31
2022-11-03T13:14:27.514Z,100914.91
2022-11-03T13:16:53.876Z,100902.56
2022-11-03T13:19:20.396Z,100908.41
2022-11-03T13:21:46.786Z,100909.16
2022-11-03T13:24:13.133Z,100891.88
2022-11-03T13:26:39.658Z,100889.66
2022-11-03T13:29:05.971Z,100883.16
2022-11-03T13:31:32.511Z,100878.88
2022-11-03T13:33:58.844Z,100867.38
2022-11-03T13:36:25.235Z,100855.94
2022-11-03T13:38:51.754Z,100847.22
2022-11-03T13:41:18.432Z,100839.97
2022-11-03T13:43:45.132Z,100834.28
2022-11-03T13:46:12.860Z,100829.94
2022-11-03T13:51:25.713Z,100816.84
2022-11-03T14:04:43.368Z,100796.59
2022-11-03T14:07:10.438Z,100795.22
2022-11-03T14:12:26.875Z,100787.97
2022-11-03T14:14:53.203Z,100780.81
2022-11-03T14:17:19.551Z,100786.56
2022-11-03T14:19:50.403Z,100776.72
2022-11-03T14:22:19.637Z,100780.31
2022-11-03T14:24:46.004Z,100772.44
2022-11-03T14:27:12.845Z,100778.22
2022-11-03T14:29:39.207Z,100775.38
2022-11-03T14:32:06.159Z,100768.25
2022-11-03T14:34:32.519Z,100762.41
2022-11-03T14:36:58.913Z,100753.75
2022-11-03T14:39:25.296Z,100758.09
2022-11-03T14:42:03.612Z,100750.88
2022-11-03T14:44:33.275Z,100737.91
2022-11-03T14:47:01.414Z,100736.47
2022-11-03T14:49:28.045Z,100737.91
2022-11-03T14:51:54.428Z,100724.88
2022-11-03T14:54:20.734Z,100734.94
2022-11-03T14:56:47.073Z,100719.84
2022-11-03T14:59:13.677Z,100723.41
2022-11-03T15:01:40.121Z,100703.16
2022-11-03T15:04:07.865Z,100710.41
2022-11-03T15:06:34.607Z,100704.66
2022-11-03T15:09:01.034Z,100698.88
2022-11-03T15:11:27.395Z,100695.91
2022-11-03T15:13:55.270Z,100695.91
2022-11-03T15:16:21.715Z,100690.16
2022-11-03T15:18:48.036Z,100685.81
2022-11-03T15:21:14.569Z,100685.16
2022-11-03T15:26:27.236Z,100683.66
2022-11-03T15:28:53.666Z,100672.81
2022-11-03T15:31:19.978Z,100672.75
2022-11-03T15:33:46.284Z,100659.72
2022-11-03T15:36:12.682Z,100655.47
2022-11-03T15:38:39.019Z,100648.22
2022-11-03T15:41:17.895Z,100651.09
2022-11-03T15:43:44.482Z,100646.75
2022-11-03T15:46:10.879Z,100639.50
2022-11-03T15:48:37.366Z,100636.69
2022-11-03T15:51:03.805Z,100640.22
2022-11-03T15:53:30.116Z,100629.47
2022-11-03T15:55:56.426Z,100621.66
2022-11-03T15:58:22.735Z,100612.94
2022-11-03T16:00:49.122Z,100602.97
2022-11-03T16:03:15.583Z,100587.28
2022-11-03T16:05:42.152Z,100584.63
2022-11-03T16:08:09.024Z,100573.69
2022-11-03T16:10:35.562Z,100556.09
2022-11-03T16:13:01.873Z,100566.06
2022-11-03T16:15:28.197Z,100563.09
2022-11-03T16:17:54.503Z,100565.25
2022-11-03T16:20:20.924Z,100555.78
2022-11-03T16:22:47.267Z,100554.47
2022-11-03T16:25:16.708Z,100550.03
2022-11-03T16:27:45.382Z,100541.47
2022-11-03T16:30:11.821Z,100532.81
2022-11-03T16:32:38.164Z,100537.13
2022-11-03T16:35:04.586Z,100528.56
2022-11-03T16:37:30.912Z,100522.16
2022-11-03T16:39:57.228Z,100515.72
2022-11-03T16:42:23.538Z,100514.34
2022-11-03T16:44:49.850Z,100514.41
2022-11-03T16:47:16.174Z,100507.25
2022-11-03T16:49:42.792Z,100510.19
2022-11-03T16:52:09.143Z,100503.72
2022-11-03T16:54:35.465Z,100502.38
2022-11-03T16:57:01.919Z,100501.56
2022-11-03T16:59:28.431Z,100488.56
2022-11-03T17:01:55.436Z,100480.09
2022-11-03T17:04:21.853Z,100480.25
2022-11-03T17:06:48.172Z,100478.09
2022-11-03T17:09:14.527Z,100486.72
2022-11-03T17:11:40.938Z,100481.69
2022-11-03T17:14:08.019Z,100483.78
2022-11-03T17:16:34.345Z,100485.91
2022-11-03T17:19:00.654Z,100484.53
2022-11-03T17:21:27.034Z,100480.81
2022-11-03T17:23:53.384Z,100470.06
2022-11-03T17:26:20.519Z,100475.81
2022-11-03T17:28:46.822Z,100474.31
2022-11-03T17:31:13.190Z,100472.13
2022-11-03T17:33:39.499Z,100461.34
2022-11-03T17:36:05.849Z,100466.41
2022-11-03T17:38:32.282Z,100457.06
2022-11-03T17:40:58.606Z,100450.56
2022-11-03T17:43:26.875Z,100445.53
2022-11-03T17:45:53.663Z,100447.03
2022-11-03T17:48:20.164Z,100448.41
2022-11-03T17:50:47.099Z,100442.72
2022-11-03T17:53:18.833Z,100431.22
2022-11-03T17:55:47.182Z,100436.97
2022-11-03T17:58:21.031Z,100426.94
2022-11-03T18:00:48.052Z,100403.16
2022-11-03T18:03:17.021Z,100397.41
2022-11-03T18:05:44.376Z,100399.63
2022-11-03T18:08:10.939Z,100385.31
2022-11-03T18:10:41.091Z,100379.56
2022-11-03T18:13:16.679Z,100368.03
2022-11-03T18:16:06.293Z,100370.91
2022-11-03T18:18:33.702Z,100370.91
2022-11-03T18:21:00.022Z,100356.50
2022-11-03T18:23:26.955Z,100355.16
2022-11-03T18:25:53.366Z,100357.25
2022-11-03T18:28:19.968Z,100333.47
2022-11-03T18:30:46.791Z,100327.00
2022-11-03T18:33:17.925Z,100320.47
2022-11-03T18:35:44.252Z,100313.25
2022-11-03T18:38:12.071Z,100300.41
2022-11-03T18:40:39.247Z,100305.50
2022-11-03T18:43:10.444Z,100300.47
2022-11-03T18:45:36.839Z,100301.16
2022-11-03T18:48:03.147Z,100284.59
2022-11-03T18:50:29.753Z,100288.88
2022-11-03T18:52:56.475Z,100275.16
2022-11-03T18:55:22.822Z,100273.03
2022-11-03T18:57:49.509Z,100268.66
2022-11-03T19:00:16.964Z,100257.91
2022-11-03T19:02:43.312Z,100243.50
2022-11-03T19:05:13.512Z,100242.81
2022-11-03T19:07:40.196Z,100245.75
2022-11-03T19:10:06.866Z,100249.38
2022-11-03T19:12:38.640Z,100250.13
2022-11-03T19:15:05.546Z,100244.31
2022-11-03T19:17:31.889Z,100250.06
2022-11-03T19:19:58.195Z,100232.78
2022-11-03T19:22:24.549Z,100232.78
2022-11-03T19:24:50.854Z,100235.75
2022-11-03T19:27:18.046Z,100224.22
2022-11-03T19:29:44.368Z,100232.16
2022-11-03T19:32:14.443Z,100222.13
2022-11-03T19:34:40.760Z,100217.19
2022-11-03T19:37:07.089Z,100215.75
2022-11-03T19:39:34.654Z,100220.78
2022-11-03T19:42:19.873Z,100221.53
2022-11-03T19:44:46.200Z,100216.44
2022-11-03T19:47:16.630Z,100206.31
2022-11-03T19:49:43.340Z,100184.78
2022-11-03T19:52:11.012Z,100174.00
2022-11-03T19:54:37.319Z,100149.47
2022-11-03T19:57:03.850Z,100145.13
2022-11-03T19:59:30.154Z,100142.97
2022-11-03T20:01:56.619Z,100145.13
2022-11-03T20:04:23.053Z,100149.47
2022-11-03T20:06:49.432Z,100159.59
2022-11-03T20:09:16.579Z,100152.47
2022-11-03T20:11:42.947Z,100159.78
2022-11-03T20:14:10.242Z,100156.91
2022-11-03T20:16:36.565Z,100152.63
2022-11-03T20:19:03.224Z,100158.25
2022-11-03T20:21:34.221Z,100146.72
2022-11-03T20:24:00.833Z,100143.06
2022-11-03T20:26:27.193Z,100135.13
2022-11-03T20:28:53.829Z,100136.56
2022-11-03T20:31:20.184Z,100132.25
2022-11-03T20:33:46.500Z,100132.94
2022-11-03T20:36:13.600Z,100140.91
2022-11-03T20:38:39.921Z,100143.84
2022-11-03T20:41:06.936Z,100128.00
2022-11-03T20:43:34.984Z,100135.91
2022-11-03T20:46:01.327Z,100130.81
2022-11-03T20:48:27.647Z,100116.41
2022-11-03T20:50:53.988Z,100117.13
2022-11-03T20:53:20.888Z,100119.28
2022-11-03T20:55:47.275Z,100119.28
2022-11-03T20:58:14.273Z,100116.34
2022-11-03T21:00:40.937Z,100124.97
2022-11-03T21:03:38.175Z,100114.19
2022-11-03T21:06:04.549Z,100116.34
2022-11-03T21:08:30.876Z,100106.25
2022-11-03T21:11:17.172Z,100119.28
2022-11-03T21:13:43.500Z,100119.34
2022-11-03T21:16:28.790Z,100106.34
2022-11-03T21:19:14.003Z,100109.28
2022-11-03T21:21:40.406Z,100103.59
2022-11-03T21:24:08.196Z,100089.19
2022-11-03T21:26:36.576Z,100087.84
2022-11-03T21:29:02.932Z,100086.38
2022-11-03T21:31:29.261Z,100084.94
2022-11-03T21:33:55.649Z,100079.19
2022-11-03T21:36:21.977Z,100074.88
2022-11-03T21:38:48.306Z,100063.28
2022-11-03T21:41:33.458Z,100060.47
2022-11-03T21:44:14.806Z,100051.81
2022-11-03T21:46:41.772Z,100048.88
2022-11-03T21:49:26.787Z,100057.53
2022-11-03T21:51:53.130Z,100054.66
2022-11-03T21:54:19.453Z,100054.59
2022-11-03T21:56:45.869Z,100057.47
2022-11-03T21:59:12.279Z,100058.94
2022-11-03T22:01:38.696Z,100056.00
2022-11-03T22:04:05.138Z,100065.31
2022-11-03T22:06:31.473Z,100060.28
2022-11-03T22:08:57.845Z,100053.06
2022-11-03T22:11:24.260Z,100057.34
2022-11-03T22:13:59.922Z,100053.00
2022-11-03T22:16:38.211Z,100064.50
2022-11-03T22:19:23.957Z,100063.09
2022-11-03T22:22:09.106Z,100060.22
2022-11-03T22:24:54.235Z,100058.69
2022-11-03T22:27:20.552Z,100047.19
2022-11-03T22:30:05.253Z,100040.69
2022-11-03T22:32:31.840Z,100029.09
2022-11-03T22:35:17.370Z,100028.38
2022-11-03T22:37:43.753Z,100029.03
2022-11-03T22:40:28.623Z,100036.28
2022-11-03T22:43:13.393Z,100029.78
2022-11-03T22:45:54.373Z,100021.84
2022-11-03T22:48:21.333Z,100020.41
2022-11-03T22:50:47.686Z,100018.94
2022-11-03T22:53:32.681Z,100016.75
2022-11-03T22:55:59.550Z,100009.56
2022-11-03T22:58:30.301Z,100010.25
2022-11-03T23:00:57.209Z,100022.38
2022-11-03T23:03:23.624Z,100022.31
2022-11-03T23:05:49.941Z,100022.31
2022-11-03T23:08:16.315Z,100022.25
2022-11-03T23:10:42.738Z,100022.25
2022-11-03T23:13:09.352Z,100022.31
2022-11-03T23:15:41.623Z,100020.91
2022-11-03T23:18:27.524Z,100011.53
2022-11-03T23:21:08.858Z,100009.34
2022-11-03T23:23:54.454Z,100006.38
2022-11-03T23:26:20.853Z,99999.28
2022-11-03T23:28:47.187Z,99992.00
2022-11-03T23:31:13.607Z,99998.34
2022-11-03T23:33:39.988Z,99998.31
2022-11-03T23:36:15.801Z,99994.03
2022-11-03T23:38:42.187Z,99984.59
2022-11-03T23:41:09.677Z,99986.06
2022-11-03T23:43:36.027Z,99973.81
2022-11-03T23:46:24.820Z,99976.69
2022-11-03T23:48:51.508Z,99970.28
2022-11-03T23:51:18.688Z,99977.47
2022-11-03T23:53:45.091Z,99972.44
2022-11-03T23:56:30.471Z,99973.94
2022-11-03T23:58:56.788Z,99961.69
